Vandenberg Air Force Base
KVBG : now visible

Airfield :











YOU CAN JOIN US ON...

 
LOGIN :

Register | Disclaimer

   EN    FR    IT 

 









Legend :    VFR   Marginal VFR   IFR   Intensive IFR   Very Intensive IFR
Visi :
Ceiling :
>= 8 km
>= 3000ft
5 to 8 km
1000 to 3000 ft
1500m to 5 km
500 to 1000 ft
800 to 1500m
200 to 500 ft
< 800m
< 200 ft
Symbols :   Thunderstorms  Fog  Heavy snow  Heavy precipitations  Wind > 20 kt






- Airport Elevation : 369 ft


KVBG - Vandenberg Air Force Base

CURRENT METAR :
  • 191658Z 00000KT 10SM SCT008 10/08 A3011 RMK AO2A SLP200 T00970080

EXPIRED METARs :
  • 191643Z VRB04KT 6SM BR OVC007 09/08 A3011 RMK AO2A CIG 005V008 WND DATA ESTMD SLP200 $
  • 191613Z VRB05KT 5SM BR BKN008 08/07 A3010 RMK AO2A CIG 003V008 BKN V SCT CIG 003 RWY30 SLP197 $
  • 191558Z 15005KT 5SM BR BKN004 08/07 A3009 RMK AO2A BKN V OVC SLP194 T00800074
  • 191513Z 11003KT 4SM BR OVC004 08/07 A3008 RMK AO2A SLP190
  • 191458Z COR 11005KT 4SM BR OVC003 08/08 A3007 RMK AO2A SLP187 T00800075 52006 COR 1459
  • 191443Z AUTO 12004KT 8SM OVC004 08/08 A3006 RMK AO2 SLP183
  • 191428Z AUTO 10004KT 10SM OVC005 08/08 A3006 RMK AO2 SLP183
  • 191413Z AUTO 12005KT 10SM OVC006 08/08 A3006 RMK AO2 SLP183

TAF AMD TAF KVBG
Valid from the 19 at 16:00 until the 20 at 21:00 UTC


191639Z 1916/2021 VRB06KT 9000 BR SCT003 BKN007 QNH3010INS
BECMG 1918/1919 33006KT 9999 NSW FEW008 QNH3009INS
BECMG 1920/1921 30012KT 9999 SKC QNH3006INS
BECMG 2002/2003 VRB06KT 6000 BR BKN005 QNH3003INS
BECMG 2015/2016 VRB06KT 9999 NSW FEW007 FEW250 QNH3005INS
BECMG 2018/2019 31012KT 9999 SCT250 QNH3007INS TX16/1920Z TN06/2015Z



MET'MAP, your aeronautical weather chart ! - Copyright ORBIFLY December 2007 - Disclaimer

ORBIFLY MET'MAP TEAM :

Programming & Development : Alexandra Zaïnal
Concept & original design : Baudouin d'Aumeries
Assistance for programming : Marc-Olivier Méhu
Technical & hardware support : Manuel Goepfert

Contact : metmap@orbifly.com




SOURCES & CREDITS :

   NOAA       Earth
Advisory